sensor_id;sensor_type;location;lat;lon;timestamp;temperature;humidity
60313;DHT22;46158;52.850;6.970;2023-04-26T00:00:25;13.10;72.30
60313;DHT22;46158;52.850;6.970;2023-04-26T00:02:51;13.20;72.30
60313;DHT22;46158;52.850;6.970;2023-04-26T00:05:18;13.10;72.30
60313;DHT22;46158;52.850;6.970;2023-04-26T00:07:44;13.10;72.30
60313;DHT22;46158;52.850;6.970;2023-04-26T00:10:10;13.10;72.30
60313;DHT22;46158;52.850;6.970;2023-04-26T00:12:36;13.10;72.30
60313;DHT22;46158;52.850;6.970;2023-04-26T00:15:03;13.10;72.40
60313;DHT22;46158;52.850;6.970;2023-04-26T00:17:29;13.10;72.40
60313;DHT22;46158;52.850;6.970;2023-04-26T00:19:55;13.10;72.40
60313;DHT22;46158;52.850;6.970;2023-04-26T00:22:22;13.10;72.40
60313;DHT22;46158;52.850;6.970;2023-04-26T00:24:48;13.10;72.50
60313;DHT22;46158;52.850;6.970;2023-04-26T00:27:14;13.10;72.50
60313;DHT22;46158;52.850;6.970;2023-04-26T00:29:40;13.10;72.50
60313;DHT22;46158;52.850;6.970;2023-04-26T00:32:06;13.10;72.60
60313;DHT22;46158;52.850;6.970;2023-04-26T00:34:33;13.10;72.50
60313;DHT22;46158;52.850;6.970;2023-04-26T00:36:58;13.10;72.50
60313;DHT22;46158;52.850;6.970;2023-04-26T00:39:24;13.10;72.50
60313;DHT22;46158;52.850;6.970;2023-04-26T00:41:50;13.10;72.50
60313;DHT22;46158;52.850;6.970;2023-04-26T00:44:16;13.10;72.50
60313;DHT22;46158;52.850;6.970;2023-04-26T00:46:42;13.10;72.60
60313;DHT22;46158;52.850;6.970;2023-04-26T00:49:16;13.10;72.60
60313;DHT22;46158;52.850;6.970;2023-04-26T00:51:43;13.10;72.60
60313;DHT22;46158;52.850;6.970;2023-04-26T00:54:09;13.10;72.50
60313;DHT22;46158;52.850;6.970;2023-04-26T00:56:36;13.10;72.50
60313;DHT22;46158;52.850;6.970;2023-04-26T00:59:03;13.10;72.50
60313;DHT22;46158;52.850;6.970;2023-04-26T01:01:29;13.10;72.60
60313;DHT22;46158;52.850;6.970;2023-04-26T01:03:54;13.10;72.50
60313;DHT22;46158;52.850;6.970;2023-04-26T01:06:21;13.10;72.60
60313;DHT22;46158;52.850;6.970;2023-04-26T01:08:49;13.10;72.60
60313;DHT22;46158;52.850;6.970;2023-04-26T01:11:18;13.10;72.60
60313;DHT22;46158;52.850;6.970;2023-04-26T01:13:45;13.10;72.70
60313;DHT22;46158;52.850;6.970;2023-04-26T01:16:12;13.10;72.70
60313;DHT22;46158;52.850;6.970;2023-04-26T01:18:38;13.10;72.70
60313;DHT22;46158;52.850;6.970;2023-04-26T01:21:03;13.10;72.70
60313;DHT22;46158;52.850;6.970;2023-04-26T01:23:30;13.10;72.70
60313;DHT22;46158;52.850;6.970;2023-04-26T01:25:56;13.10;72.70
60313;DHT22;46158;52.850;6.970;2023-04-26T01:28:21;13.10;72.70
60313;DHT22;46158;52.850;6.970;2023-04-26T01:30:47;13.10;72.80
60313;DHT22;46158;52.850;6.970;2023-04-26T01:33:13;13.10;72.70
60313;DHT22;46158;52.850;6.970;2023-04-26T01:35:40;13.20;72.80
60313;DHT22;46158;52.850;6.970;2023-04-26T01:38:06;13.10;72.80
60313;DHT22;46158;52.850;6.970;2023-04-26T01:40:33;13.10;72.70
60313;DHT22;46158;52.850;6.970;2023-04-26T01:42:59;13.10;72.70
60313;DHT22;46158;52.850;6.970;2023-04-26T01:45:25;13.10;72.70
60313;DHT22;46158;52.850;6.970;2023-04-26T01:47:50;13.10;72.70
60313;DHT22;46158;52.850;6.970;2023-04-26T01:50:16;13.20;72.70
60313;DHT22;46158;52.850;6.970;2023-04-26T01:52:42;13.10;72.70
60313;DHT22;46158;52.850;6.970;2023-04-26T01:55:08;13.10;72.70
60313;DHT22;46158;52.850;6.970;2023-04-26T01:57:33;13.10;72.70
60313;DHT22;46158;52.850;6.970;2023-04-26T01:59:59;13.10;72.70
60313;DHT22;46158;52.850;6.970;2023-04-26T02:02:27;13.10;72.70
60313;DHT22;46158;52.850;6.970;2023-04-26T02:04:52;13.20;72.80
60313;DHT22;46158;52.850;6.970;2023-04-26T02:07:18;13.10;72.80
60313;DHT22;46158;52.850;6.970;2023-04-26T02:09:44;13.10;72.80
60313;DHT22;46158;52.850;6.970;2023-04-26T02:12:11;13.20;72.90
60313;DHT22;46158;52.850;6.970;2023-04-26T02:14:37;13.20;72.80
60313;DHT22;46158;52.850;6.970;2023-04-26T02:17:03;13.20;72.90
60313;DHT22;46158;52.850;6.970;2023-04-26T02:19:29;13.20;72.90
60313;DHT22;46158;52.850;6.970;2023-04-26T02:21:56;13.20;72.90
60313;DHT22;46158;52.850;6.970;2023-04-26T02:24:23;13.20;73.00
60313;DHT22;46158;52.850;6.970;2023-04-26T02:26:49;13.20;73.00
60313;DHT22;46158;52.850;6.970;2023-04-26T02:29:15;13.20;72.90
60313;DHT22;46158;52.850;6.970;2023-04-26T02:31:41;13.20;73.00
60313;DHT22;46158;52.850;6.970;2023-04-26T02:34:06;13.20;72.90
60313;DHT22;46158;52.850;6.970;2023-04-26T02:36:33;13.20;73.00
60313;DHT22;46158;52.850;6.970;2023-04-26T02:38:59;13.20;73.00
60313;DHT22;46158;52.850;6.970;2023-04-26T02:41:24;13.20;72.90
60313;DHT22;46158;52.850;6.970;2023-04-26T02:43:50;13.20;72.90
60313;DHT22;46158;52.850;6.970;2023-04-26T02:46:16;13.20;72.90
60313;DHT22;46158;52.850;6.970;2023-04-26T02:48:42;13.20;72.90
60313;DHT22;46158;52.850;6.970;2023-04-26T02:51:08;13.20;72.90
60313;DHT22;46158;52.850;6.970;2023-04-26T02:53:33;13.20;72.90
60313;DHT22;46158;52.850;6.970;2023-04-26T02:55:59;13.20;72.90
60313;DHT22;46158;52.850;6.970;2023-04-26T02:58:25;13.20;72.90
60313;DHT22;46158;52.850;6.970;2023-04-26T03:00:51;13.20;72.90
60313;DHT22;46158;52.850;6.970;2023-04-26T03:03:19;13.20;73.00
60313;DHT22;46158;52.850;6.970;2023-04-26T03:05:45;13.20;73.00
60313;DHT22;46158;52.850;6.970;2023-04-26T03:08:11;13.20;73.00
60313;DHT22;46158;52.850;6.970;2023-04-26T03:10:37;13.20;73.00
60313;DHT22;46158;52.850;6.970;2023-04-26T03:13:05;13.20;73.00
60313;DHT22;46158;52.850;6.970;2023-04-26T03:15:31;13.20;73.10
60313;DHT22;46158;52.850;6.970;2023-04-26T03:17:57;13.20;73.10
60313;DHT22;46158;52.850;6.970;2023-04-26T03:20:23;13.20;73.10
60313;DHT22;46158;52.850;6.970;2023-04-26T03:22:50;13.20;73.10
60313;DHT22;46158;52.850;6.970;2023-04-26T03:25:16;13.20;73.10
60313;DHT22;46158;52.850;6.970;2023-04-26T03:27:41;13.20;73.10
60313;DHT22;46158;52.850;6.970;2023-04-26T03:30:07;13.20;73.10
60313;DHT22;46158;52.850;6.970;2023-04-26T03:32:33;13.20;73.00
60313;DHT22;46158;52.850;6.970;2023-04-26T03:34:59;13.20;73.00
60313;DHT22;46158;52.850;6.970;2023-04-26T03:37:25;13.20;73.00
60313;DHT22;46158;52.850;6.970;2023-04-26T03:39:54;13.20;73.00
60313;DHT22;46158;52.850;6.970;2023-04-26T03:42:20;13.20;73.00
60313;DHT22;46158;52.850;6.970;2023-04-26T03:44:45;13.20;73.00
60313;DHT22;46158;52.850;6.970;2023-04-26T03:47:11;13.20;73.00
60313;DHT22;46158;52.850;6.970;2023-04-26T03:49:39;13.20;73.00
60313;DHT22;46158;52.850;6.970;2023-04-26T03:52:08;13.20;73.10
60313;DHT22;46158;52.850;6.970;2023-04-26T03:54:34;13.20;73.10
60313;DHT22;46158;52.850;6.970;2023-04-26T03:57:03;13.20;73.20
60313;DHT22;46158;52.850;6.970;2023-04-26T03:59:38;13.20;73.10
60313;DHT22;46158;52.850;6.970;2023-04-26T04:02:04;13.20;73.20
60313;DHT22;46158;52.850;6.970;2023-04-26T04:04:30;13.20;73.20
60313;DHT22;46158;52.850;6.970;2023-04-26T04:06:56;13.20;73.20
60313;DHT22;46158;52.850;6.970;2023-04-26T04:09:24;13.20;73.20
60313;DHT22;46158;52.850;6.970;2023-04-26T04:11:50;13.20;73.30
60313;DHT22;46158;52.850;6.970;2023-04-26T04:14:16;13.20;73.30
60313;DHT22;46158;52.850;6.970;2023-04-26T04:16:42;13.20;73.30
60313;DHT22;46158;52.850;6.970;2023-04-26T04:19:08;13.20;73.30
60313;DHT22;46158;52.850;6.970;2023-04-26T04:21:34;13.20;73.30
60313;DHT22;46158;52.850;6.970;2023-04-26T04:24:00;13.20;73.30
60313;DHT22;46158;52.850;6.970;2023-04-26T04:26:26;13.30;73.30
60313;DHT22;46158;52.850;6.970;2023-04-26T04:28:55;13.20;73.30
60313;DHT22;46158;52.850;6.970;2023-04-26T04:31:21;13.30;73.30
60313;DHT22;46158;52.850;6.970;2023-04-26T04:33:47;13.30;73.30
60313;DHT22;46158;52.850;6.970;2023-04-26T04:36:13;13.20;73.20
60313;DHT22;46158;52.850;6.970;2023-04-26T04:38:42;13.30;73.30
60313;DHT22;46158;52.850;6.970;2023-04-26T04:41:08;13.20;73.20
60313;DHT22;46158;52.850;6.970;2023-04-26T04:43:40;13.30;73.30
60313;DHT22;46158;52.850;6.970;2023-04-26T04:46:06;13.20;73.20
60313;DHT22;46158;52.850;6.970;2023-04-26T04:48:31;13.20;73.30
60313;DHT22;46158;52.850;6.970;2023-04-26T04:50:58;13.20;73.30
60313;DHT22;46158;52.850;6.970;2023-04-26T04:53:24;13.20;73.30
60313;DHT22;46158;52.850;6.970;2023-04-26T04:55:49;13.20;73.30
60313;DHT22;46158;52.850;6.970;2023-04-26T04:58:18;13.20;73.30
60313;DHT22;46158;52.850;6.970;2023-04-26T05:00:44;13.20;73.30
60313;DHT22;46158;52.850;6.970;2023-04-26T05:03:13;13.20;73.30
60313;DHT22;46158;52.850;6.970;2023-04-26T05:05:39;13.20;73.40
60313;DHT22;46158;52.850;6.970;2023-04-26T05:08:05;13.20;73.40
60313;DHT22;46158;52.850;6.970;2023-04-26T05:10:33;13.20;73.40
60313;DHT22;46158;52.850;6.970;2023-04-26T05:12:59;13.30;73.50
60313;DHT22;46158;52.850;6.970;2023-04-26T05:15:25;13.30;73.50
60313;DHT22;46158;52.850;6.970;2023-04-26T05:17:50;13.30;73.50
60313;DHT22;46158;52.850;6.970;2023-04-26T05:20:16;13.30;73.40
60313;DHT22;46158;52.850;6.970;2023-04-26T05:22:42;13.30;73.40
60313;DHT22;46158;52.850;6.970;2023-04-26T05:25:08;13.30;73.40
60313;DHT22;46158;52.850;6.970;2023-04-26T05:27:35;13.30;73.40
60313;DHT22;46158;52.850;6.970;2023-04-26T05:30:03;13.30;73.30
60313;DHT22;46158;52.850;6.970;2023-04-26T05:32:29;13.30;73.30
60313;DHT22;46158;52.850;6.970;2023-04-26T05:34:55;13.30;73.30
60313;DHT22;46158;52.850;6.970;2023-04-26T05:37:21;13.30;73.30
60313;DHT22;46158;52.850;6.970;2023-04-26T05:39:47;13.30;73.40
60313;DHT22;46158;52.850;6.970;2023-04-26T05:42:13;13.30;73.40
60313;DHT22;46158;52.850;6.970;2023-04-26T05:44:39;13.30;73.40
60313;DHT22;46158;52.850;6.970;2023-04-26T05:47:05;13.30;73.40
60313;DHT22;46158;52.850;6.970;2023-04-26T05:49:31;13.30;73.40
60313;DHT22;46158;52.850;6.970;2023-04-26T05:52:00;13.30;73.40
60313;DHT22;46158;52.850;6.970;2023-04-26T05:54:27;13.30;73.40
60313;DHT22;46158;52.850;6.970;2023-04-26T05:56:53;13.30;73.50
60313;DHT22;46158;52.850;6.970;2023-04-26T05:59:19;13.30;73.50
60313;DHT22;46158;52.850;6.970;2023-04-26T06:01:48;13.30;73.50
60313;DHT22;46158;52.850;6.970;2023-04-26T06:04:14;13.30;73.50
60313;DHT22;46158;52.850;6.970;2023-04-26T06:06:43;13.30;73.50
60313;DHT22;46158;52.850;6.970;2023-04-26T06:09:09;13.30;73.50
60313;DHT22;46158;52.850;6.970;2023-04-26T06:11:38;13.30;73.40
60313;DHT22;46158;52.850;6.970;2023-04-26T06:14:04;13.30;73.40
60313;DHT22;46158;52.850;6.970;2023-04-26T06:16:29;13.30;73.40
60313;DHT22;46158;52.850;6.970;2023-04-26T06:18:56;13.30;73.40
60313;DHT22;46158;52.850;6.970;2023-04-26T06:21:25;13.30;73.40
60313;DHT22;46158;52.850;6.970;2023-04-26T06:23:51;13.30;73.40
60313;DHT22;46158;52.850;6.970;2023-04-26T06:26:17;13.30;73.40
60313;DHT22;46158;52.850;6.970;2023-04-26T06:28:43;13.30;73.50
60313;DHT22;46158;52.850;6.970;2023-04-26T06:31:09;13.30;73.50
60313;DHT22;46158;52.850;6.970;2023-04-26T06:33:35;13.30;73.50
60313;DHT22;46158;52.850;6.970;2023-04-26T06:36:00;13.30;73.60
60313;DHT22;46158;52.850;6.970;2023-04-26T06:38:26;13.30;73.70
60313;DHT22;46158;52.850;6.970;2023-04-26T06:40:52;13.30;73.80
60313;DHT22;46158;52.850;6.970;2023-04-26T06:43:17;13.30;73.90
60313;DHT22;46158;52.850;6.970;2023-04-26T06:45:48;13.30;73.90
60313;DHT22;46158;52.850;6.970;2023-04-26T06:48:13;13.40;74.00
60313;DHT22;46158;52.850;6.970;2023-04-26T06:50:39;13.30;74.00
60313;DHT22;46158;52.850;6.970;2023-04-26T06:53:06;13.30;74.10
60313;DHT22;46158;52.850;6.970;2023-04-26T06:55:32;13.30;74.20
60313;DHT22;46158;52.850;6.970;2023-04-26T06:57:59;13.40;74.30
60313;DHT22;46158;52.850;6.970;2023-04-26T07:00:25;13.40;74.40
60313;DHT22;46158;52.850;6.970;2023-04-26T07:02:51;13.40;74.40
60313;DHT22;46158;52.850;6.970;2023-04-26T07:05:17;13.40;74.50
60313;DHT22;46158;52.850;6.970;2023-04-26T07:07:45;13.40;74.50
60313;DHT22;46158;52.850;6.970;2023-04-26T07:10:12;13.40;74.60
60313;DHT22;46158;52.850;6.970;2023-04-26T07:12:38;13.40;74.60
60313;DHT22;46158;52.850;6.970;2023-04-26T07:15:04;13.40;74.60
60313;DHT22;46158;52.850;6.970;2023-04-26T07:17:31;13.50;74.60
60313;DHT22;46158;52.850;6.970;2023-04-26T07:19:57;13.50;74.60
60313;DHT22;46158;52.850;6.970;2023-04-26T07:22:23;13.50;74.60
60313;DHT22;46158;52.850;6.970;2023-04-26T07:24:49;13.50;74.60
60313;DHT22;46158;52.850;6.970;2023-04-26T07:27:15;13.50;74.60
60313;DHT22;46158;52.850;6.970;2023-04-26T07:29:41;13.50;74.50
60313;DHT22;46158;52.850;6.970;2023-04-26T07:32:06;13.60;74.60
60313;DHT22;46158;52.850;6.970;2023-04-26T07:34:36;13.60;74.50
60313;DHT22;46158;52.850;6.970;2023-04-26T07:37:02;13.60;74.60
60313;DHT22;46158;52.850;6.970;2023-04-26T07:39:34;13.60;74.50
60313;DHT22;46158;52.850;6.970;2023-04-26T07:41:59;13.60;74.40
60313;DHT22;46158;52.850;6.970;2023-04-26T07:44:25;13.60;74.40
60313;DHT22;46158;52.850;6.970;2023-04-26T07:46:51;13.60;74.40
60313;DHT22;46158;52.850;6.970;2023-04-26T07:49:17;13.60;74.30
60313;DHT22;46158;52.850;6.970;2023-04-26T07:51:43;13.70;74.40
60313;DHT22;46158;52.850;6.970;2023-04-26T07:54:10;13.70;74.30
60313;DHT22;46158;52.850;6.970;2023-04-26T07:56:36;13.70;74.30
60313;DHT22;46158;52.850;6.970;2023-04-26T07:59:01;13.70;74.30
60313;DHT22;46158;52.850;6.970;2023-04-26T08:01:29;13.70;74.20
60313;DHT22;46158;52.850;6.970;2023-04-26T08:03:55;13.70;74.20
60313;DHT22;46158;52.850;6.970;2023-04-26T08:06:20;13.70;74.20
60313;DHT22;46158;52.850;6.970;2023-04-26T08:08:50;13.70;74.20
60313;DHT22;46158;52.850;6.970;2023-04-26T08:11:18;13.70;74.10
60313;DHT22;46158;52.850;6.970;2023-04-26T08:13:44;13.70;74.10
60313;DHT22;46158;52.850;6.970;2023-04-26T08:16:10;13.70;74.10
60313;DHT22;46158;52.850;6.970;2023-04-26T08:18:37;13.70;74.10
60313;DHT22;46158;52.850;6.970;2023-04-26T08:21:03;13.70;74.10
60313;DHT22;46158;52.850;6.970;2023-04-26T08:23:32;13.70;74.10
60313;DHT22;46158;52.850;6.970;2023-04-26T08:25:59;13.70;74.10
60313;DHT22;46158;52.850;6.970;2023-04-26T08:28:24;13.70;74.10
60313;DHT22;46158;52.850;6.970;2023-04-26T08:30:51;13.70;74.20
60313;DHT22;46158;52.850;6.970;2023-04-26T08:33:28;13.70;74.10
60313;DHT22;46158;52.850;6.970;2023-04-26T08:35:58;13.70;74.20
60313;DHT22;46158;52.850;6.970;2023-04-26T08:38:25;13.70;74.10
60313;DHT22;46158;52.850;6.970;2023-04-26T08:40:51;13.70;74.10
60313;DHT22;46158;52.850;6.970;2023-04-26T08:43:18;13.70;74.10
60313;DHT22;46158;52.850;6.970;2023-04-26T08:45:47;13.70;74.10
60313;DHT22;46158;52.850;6.970;2023-04-26T08:48:13;13.70;74.10
60313;DHT22;46158;52.850;6.970;2023-04-26T08:50:43;13.70;74.10
60313;DHT22;46158;52.850;6.970;2023-04-26T08:53:13;13.70;74.10
60313;DHT22;46158;52.850;6.970;2023-04-26T08:55:40;13.70;74.10
60313;DHT22;46158;52.850;6.970;2023-04-26T08:58:07;13.70;74.10
60313;DHT22;46158;52.850;6.970;2023-04-26T09:00:33;13.70;74.10
60313;DHT22;46158;52.850;6.970;2023-04-26T09:03:00;13.70;74.00
60313;DHT22;46158;52.850;6.970;2023-04-26T09:05:25;13.80;74.10
60313;DHT22;46158;52.850;6.970;2023-04-26T09:07:56;13.80;74.00
60313;DHT22;46158;52.850;6.970;2023-04-26T09:10:21;13.80;74.00
60313;DHT22;46158;52.850;6.970;2023-04-26T09:12:54;13.80;73.90
60313;DHT22;46158;52.850;6.970;2023-04-26T09:15:21;13.80;73.90
60313;DHT22;46158;52.850;6.970;2023-04-26T09:17:47;13.80;73.80
60313;DHT22;46158;52.850;6.970;2023-04-26T09:20:25;13.80;73.70
60313;DHT22;46158;52.850;6.970;2023-04-26T09:22:53;13.80;73.60
60313;DHT22;46158;52.850;6.970;2023-04-26T09:25:27;13.90;73.70
60313;DHT22;46158;52.850;6.970;2023-04-26T09:27:53;13.90;73.60
60313;DHT22;46158;52.850;6.970;2023-04-26T09:30:20;13.90;73.60
60313;DHT22;46158;52.850;6.970;2023-04-26T09:32:56;13.90;73.50
60313;DHT22;46158;52.850;6.970;2023-04-26T09:35:29;13.90;73.50
60313;DHT22;46158;52.850;6.970;2023-04-26T09:38:14;13.90;73.50
60313;DHT22;46158;52.850;6.970;2023-04-26T09:40:43;13.90;73.40
60313;DHT22;46158;52.850;6.970;2023-04-26T09:43:10;13.90;73.40
60313;DHT22;46158;52.850;6.970;2023-04-26T09:45:53;13.90;73.30
60313;DHT22;46158;52.850;6.970;2023-04-26T09:48:33;13.90;73.30
60313;DHT22;46158;52.850;6.970;2023-04-26T09:53:37;13.90;73.30
60313;DHT22;46158;52.850;6.970;2023-04-26T10:01:13;13.90;73.10
60313;DHT22;46158;52.850;6.970;2023-04-26T10:03:40;13.90;73.10
60313;DHT22;46158;52.850;6.970;2023-04-26T10:06:07;13.90;73.00
60313;DHT22;46158;52.850;6.970;2023-04-26T10:08:34;13.90;73.00
60313;DHT22;46158;52.850;6.970;2023-04-26T10:11:02;13.90;72.90
60313;DHT22;46158;52.850;6.970;2023-04-26T10:13:30;13.90;72.90
60313;DHT22;46158;52.850;6.970;2023-04-26T10:15:57;13.90;72.90
60313;DHT22;46158;52.850;6.970;2023-04-26T10:18:24;13.90;72.80
60313;DHT22;46158;52.850;6.970;2023-04-26T10:20:51;13.90;72.80
60313;DHT22;46158;52.850;6.970;2023-04-26T10:23:21;13.90;72.80
60313;DHT22;46158;52.850;6.970;2023-04-26T10:25:50;13.90;72.80
60313;DHT22;46158;52.850;6.970;2023-04-26T10:28:16;13.90;72.70
60313;DHT22;46158;52.850;6.970;2023-04-26T10:30:58;13.90;72.70
60313;DHT22;46158;52.850;6.970;2023-04-26T10:33:25;13.90;72.60
60313;DHT22;46158;52.850;6.970;2023-04-26T10:36:06;13.90;72.70
60313;DHT22;46158;52.850;6.970;2023-04-26T10:38:34;13.90;72.60
60313;DHT22;46158;52.850;6.970;2023-04-26T10:41:28;13.90;72.60
60313;DHT22;46158;52.850;6.970;2023-04-26T10:43:55;13.90;72.60
60313;DHT22;46158;52.850;6.970;2023-04-26T10:46:38;13.90;72.60
60313;DHT22;46158;52.850;6.970;2023-04-26T10:49:15;13.90;72.50
60313;DHT22;46158;52.850;6.970;2023-04-26T10:52:07;13.90;72.60
60313;DHT22;46158;52.850;6.970;2023-04-26T10:54:47;13.90;72.60
60313;DHT22;46158;52.850;6.970;2023-04-26T10:57:13;13.90;72.60
60313;DHT22;46158;52.850;6.970;2023-04-26T10:59:40;13.80;72.60
60313;DHT22;46158;52.850;6.970;2023-04-26T11:02:52;13.80;72.60
60313;DHT22;46158;52.850;6.970;2023-04-26T11:05:52;13.80;72.50
60313;DHT22;46158;52.850;6.970;2023-04-26T11:08:20;13.80;72.50
60313;DHT22;46158;52.850;6.970;2023-04-26T11:11:07;13.80;72.60
60313;DHT22;46158;52.850;6.970;2023-04-26T11:13:36;13.80;72.50
60313;DHT22;46158;52.850;6.970;2023-04-26T11:16:07;13.80;72.50
60313;DHT22;46158;52.850;6.970;2023-04-26T11:18:35;13.80;72.40
60313;DHT22;46158;52.850;6.970;2023-04-26T11:21:01;13.80;72.50
60313;DHT22;46158;52.850;6.970;2023-04-26T11:23:29;13.80;72.40
60313;DHT22;46158;52.850;6.970;2023-04-26T11:25:59;13.80;72.40
60313;DHT22;46158;52.850;6.970;2023-04-26T11:28:27;13.80;72.40
60313;DHT22;46158;52.850;6.970;2023-04-26T11:30:53;13.80;72.40
60313;DHT22;46158;52.850;6.970;2023-04-26T11:33:21;13.80;72.30
60313;DHT22;46158;52.850;6.970;2023-04-26T11:35:52;13.80;72.30
60313;DHT22;46158;52.850;6.970;2023-04-26T11:38:21;13.80;72.30
60313;DHT22;46158;52.850;6.970;2023-04-26T11:41:01;13.80;72.30
60313;DHT22;46158;52.850;6.970;2023-04-26T11:46:00;13.80;72.30
60313;DHT22;46158;52.850;6.970;2023-04-26T11:48:29;13.80;72.30
60313;DHT22;46158;52.850;6.970;2023-04-26T11:50:59;13.80;73.00
60313;DHT22;46158;52.850;6.970;2023-04-26T11:53:37;13.80;72.30
60313;DHT22;46158;52.850;6.970;2023-04-26T11:56:16;13.80;72.30
60313;DHT22;46158;52.850;6.970;2023-04-26T11:58:48;13.80;72.30
60313;DHT22;46158;52.850;6.970;2023-04-26T12:01:24;13.70;72.20
60313;DHT22;46158;52.850;6.970;2023-04-26T12:03:55;13.80;72.30
60313;DHT22;46158;52.850;6.970;2023-04-26T12:06:40;13.80;72.20
60313;DHT22;46158;52.850;6.970;2023-04-26T12:09:07;13.80;72.20
60313;DHT22;46158;52.850;6.970;2023-04-26T12:11:47;13.80;72.30
60313;DHT22;46158;52.850;6.970;2023-04-26T12:14:15;13.80;72.20
60313;DHT22;46158;52.850;6.970;2023-04-26T12:16:45;13.80;72.20
60313;DHT22;46158;52.850;6.970;2023-04-26T12:19:11;13.80;72.20
60313;DHT22;46158;52.850;6.970;2023-04-26T12:21:41;13.80;72.20
60313;DHT22;46158;52.850;6.970;2023-04-26T12:24:07;13.80;72.30
60313;DHT22;46158;52.850;6.970;2023-04-26T12:26:44;13.70;72.10
60313;DHT22;46158;52.850;6.970;2023-04-26T12:29:09;13.80;72.20
60313;DHT22;46158;52.850;6.970;2023-04-26T12:31:35;13.80;72.10
60313;DHT22;46158;52.850;6.970;2023-04-26T12:34:01;13.80;72.40
60313;DHT22;46158;52.850;6.970;2023-04-26T12:36:29;13.80;72.10
60313;DHT22;46158;52.850;6.970;2023-04-26T12:38:56;13.80;72.20
60313;DHT22;46158;52.850;6.970;2023-04-26T12:41:22;13.80;72.10
60313;DHT22;46158;52.850;6.970;2023-04-26T12:43:49;13.80;72.10
60313;DHT22;46158;52.850;6.970;2023-04-26T12:46:14;13.80;72.10
60313;DHT22;46158;52.850;6.970;2023-04-26T12:48:40;13.80;72.10
60313;DHT22;46158;52.850;6.970;2023-04-26T12:51:06;13.80;72.10
60313;DHT22;46158;52.850;6.970;2023-04-26T12:53:31;13.80;72.10
60313;DHT22;46158;52.850;6.970;2023-04-26T12:55:58;13.80;72.10
60313;DHT22;46158;52.850;6.970;2023-04-26T12:58:23;13.80;72.00
60313;DHT22;46158;52.850;6.970;2023-04-26T13:00:49;13.80;72.10
60313;DHT22;46158;52.850;6.970;2023-04-26T13:03:16;13.80;72.00
60313;DHT22;46158;52.850;6.970;2023-04-26T13:05:42;13.80;72.00
60313;DHT22;46158;52.850;6.970;2023-04-26T13:08:08;13.80;72.00
60313;DHT22;46158;52.850;6.970;2023-04-26T13:10:33;13.80;72.00
60313;DHT22;46158;52.850;6.970;2023-04-26T13:12:59;13.80;72.00
60313;DHT22;46158;52.850;6.970;2023-04-26T13:15:26;13.80;72.00
60313;DHT22;46158;52.850;6.970;2023-04-26T13:17:52;13.80;72.00
60313;DHT22;46158;52.850;6.970;2023-04-26T13:20:18;13.80;72.00
60313;DHT22;46158;52.850;6.970;2023-04-26T13:22:44;13.80;72.00
60313;DHT22;46158;52.850;6.970;2023-04-26T13:25:10;13.80;72.00
60313;DHT22;46158;52.850;6.970;2023-04-26T13:27:37;13.80;72.00
60313;DHT22;46158;52.850;6.970;2023-04-26T13:30:05;13.80;72.00
60313;DHT22;46158;52.850;6.970;2023-04-26T13:32:31;13.80;72.00
60313;DHT22;46158;52.850;6.970;2023-04-26T13:34:56;13.80;72.00
60313;DHT22;46158;52.850;6.970;2023-04-26T13:37:22;13.80;72.00
60313;DHT22;46158;52.850;6.970;2023-04-26T13:39:48;13.80;72.00
60313;DHT22;46158;52.850;6.970;2023-04-26T13:42:14;13.70;72.00
60313;DHT22;46158;52.850;6.970;2023-04-26T13:44:41;13.80;72.00
60313;DHT22;46158;52.850;6.970;2023-04-26T13:47:06;13.70;72.00
60313;DHT22;46158;52.850;6.970;2023-04-26T13:49:32;13.70;72.00
60313;DHT22;46158;52.850;6.970;2023-04-26T13:51:58;13.70;72.00
60313;DHT22;46158;52.850;6.970;2023-04-26T13:54:24;13.70;72.00
60313;DHT22;46158;52.850;6.970;2023-04-26T13:56:53;13.70;72.00
60313;DHT22;46158;52.850;6.970;2023-04-26T13:59:19;13.70;72.00
60313;DHT22;46158;52.850;6.970;2023-04-26T14:01:45;13.80;72.00
60313;DHT22;46158;52.850;6.970;2023-04-26T14:04:11;13.70;72.00
60313;DHT22;46158;52.850;6.970;2023-04-26T14:06:36;13.70;72.00
60313;DHT22;46158;52.850;6.970;2023-04-26T14:09:03;13.70;72.00
60313;DHT22;46158;52.850;6.970;2023-04-26T14:11:33;13.70;72.00
60313;DHT22;46158;52.850;6.970;2023-04-26T14:13:59;13.70;72.00
60313;DHT22;46158;52.850;6.970;2023-04-26T14:16:25;13.70;72.00
60313;DHT22;46158;52.850;6.970;2023-04-26T14:18:51;13.70;72.00
60313;DHT22;46158;52.850;6.970;2023-04-26T14:21:18;13.70;72.00
60313;DHT22;46158;52.850;6.970;2023-04-26T14:23:43;13.70;72.00
60313;DHT22;46158;52.850;6.970;2023-04-26T14:26:10;13.70;72.00
60313;DHT22;46158;52.850;6.970;2023-04-26T14:28:36;13.70;72.00
60313;DHT22;46158;52.850;6.970;2023-04-26T14:31:02;13.70;72.00
60313;DHT22;46158;52.850;6.970;2023-04-26T14:33:28;13.70;72.10
60313;DHT22;46158;52.850;6.970;2023-04-26T14:35:54;13.60;71.90
60313;DHT22;46158;52.850;6.970;2023-04-26T14:38:20;13.70;72.00
60313;DHT22;46158;52.850;6.970;2023-04-26T14:40:46;13.70;72.00
60313;DHT22;46158;52.850;6.970;2023-04-26T14:43:12;13.60;71.90
60313;DHT22;46158;52.850;6.970;2023-04-26T14:45:41;13.60;71.90
60313;DHT22;46158;52.850;6.970;2023-04-26T14:48:07;13.60;71.90
60313;DHT22;46158;52.850;6.970;2023-04-26T14:50:33;13.60;71.90
60313;DHT22;46158;52.850;6.970;2023-04-26T14:52:58;13.70;72.00
60313;DHT22;46158;52.850;6.970;2023-04-26T14:55:24;13.60;71.90
60313;DHT22;46158;52.850;6.970;2023-04-26T14:57:51;13.70;72.70
60313;DHT22;46158;52.850;6.970;2023-04-26T15:00:18;13.60;71.90
60313;DHT22;46158;52.850;6.970;2023-04-26T15:02:43;13.70;71.90
60313;DHT22;46158;52.850;6.970;2023-04-26T15:05:11;13.70;72.00
60313;DHT22;46158;52.850;6.970;2023-04-26T15:07:39;13.60;71.90
60313;DHT22;46158;52.850;6.970;2023-04-26T15:10:06;13.60;71.90
60313;DHT22;46158;52.850;6.970;2023-04-26T15:12:35;13.60;71.90
60313;DHT22;46158;52.850;6.970;2023-04-26T15:15:02;13.60;71.90
60313;DHT22;46158;52.850;6.970;2023-04-26T15:17:32;13.70;71.90
60313;DHT22;46158;52.850;6.970;2023-04-26T15:19:59;13.70;71.90
60313;DHT22;46158;52.850;6.970;2023-04-26T15:22:25;13.60;71.80
60313;DHT22;46158;52.850;6.970;2023-04-26T15:24:51;13.60;71.90
60313;DHT22;46158;52.850;6.970;2023-04-26T15:27:17;13.60;71.80
60313;DHT22;46158;52.850;6.970;2023-04-26T15:29:43;13.70;71.90
60313;DHT22;46158;52.850;6.970;2023-04-26T15:32:12;13.70;71.90
60313;DHT22;46158;52.850;6.970;2023-04-26T15:34:39;13.60;71.80
60313;DHT22;46158;52.850;6.970;2023-04-26T15:37:10;13.70;71.90
60313;DHT22;46158;52.850;6.970;2023-04-26T15:39:36;13.60;71.90
60313;DHT22;46158;52.850;6.970;2023-04-26T15:42:05;13.60;71.90